createdAt,value
2017-11-12T00:00:18.191Z,1000.14
2017-11-12T00:00:58.661Z,1000.13
2017-11-12T00:01:38.961Z,1000.15
2017-11-12T00:02:19.427Z,1000.11
2017-11-12T00:02:59.799Z,1000.16
2017-11-12T00:03:40.245Z,1000.11
2017-11-12T00:04:20.612Z,1000.13
2017-11-12T00:05:01.026Z,1000.07
2017-11-12T00:05:41.493Z,1000.07
2017-11-12T00:06:21.826Z,1000.02
2017-11-12T00:07:02.174Z,1000.04
2017-11-12T00:07:42.600Z,1000.04
2017-11-12T00:08:23.042Z,1000.04
2017-11-12T00:09:03.536Z,1000.01
2017-11-12T00:09:43.992Z,1000.01
2017-11-12T00:10:24.349Z,1000
2017-11-12T00:11:04.759Z,999.97
2017-11-12T00:11:45.144Z,999.99
2017-11-12T00:12:25.580Z,999.97
2017-11-12T00:13:06.048Z,999.97
2017-11-12T00:13:46.439Z,999.97
2017-11-12T00:14:26.790Z,999.94
2017-11-12T00:15:07.211Z,999.95
2017-11-12T00:15:47.578Z,999.96
2017-11-12T00:16:27.967Z,999.95
2017-11-12T00:17:08.387Z,999.93
2017-11-12T00:17:48.745Z,999.96
2017-11-12T00:18:29.227Z,999.92
2017-11-12T00:19:09.603Z,999.9
2017-11-12T00:19:49.991Z,999.88
2017-11-12T00:20:30.405Z,999.88
2017-11-12T00:21:10.753Z,999.81
2017-11-12T00:21:51.168Z,999.77
2017-11-12T00:22:31.574Z,999.75
2017-11-12T00:23:12.025Z,999.72
2017-11-12T00:23:52.393Z,999.68
2017-11-12T00:24:32.813Z,999.64
2017-11-12T00:25:13.201Z,999.62
2017-11-12T00:25:53.635Z,999.62
2017-11-12T00:26:34.021Z,999.6
2017-11-12T00:27:14.412Z,999.65
2017-11-12T00:27:56.602Z,999.69
2017-11-12T00:28:36.965Z,999.72
2017-11-12T00:29:17.358Z,999.76
2017-11-12T00:29:57.838Z,999.79
2017-11-12T00:30:38.240Z,999.78
2017-11-12T00:31:18.642Z,999.82
2017-11-12T00:31:59.017Z,999.83
2017-11-12T00:32:39.462Z,999.82
2017-11-12T00:33:19.839Z,999.84
2017-11-12T00:34:00.246Z,999.83
2017-11-12T00:34:40.653Z,999.83
2017-11-12T00:35:21.054Z,999.83
2017-11-12T00:36:01.462Z,999.81
2017-11-12T00:36:41.841Z,999.85
2017-11-12T00:37:22.281Z,999.81
2017-11-12T00:38:02.663Z,999.81
2017-11-12T00:38:43.077Z,999.83
2017-11-12T00:39:23.497Z,999.86
2017-11-12T00:40:03.857Z,999.86
2017-11-12T00:40:44.335Z,999.82
2017-11-12T00:41:24.692Z,999.87
2017-11-12T00:42:05.097Z,999.85
2017-11-12T00:42:45.516Z,999.87
2017-11-12T00:43:25.924Z,999.86
2017-11-12T00:44:06.322Z,999.84
2017-11-12T00:44:46.681Z,999.85
2017-11-12T00:45:27.006Z,999.85
2017-11-12T00:46:07.424Z,999.82
2017-11-12T00:46:47.818Z,999.82
2017-11-12T00:47:28.231Z,999.82
2017-11-12T00:48:08.679Z,999.83
2017-11-12T00:48:49.064Z,999.83
2017-11-12T00:49:29.398Z,999.81
2017-11-12T00:50:09.821Z,999.81
2017-11-12T00:50:50.197Z,999.81
2017-11-12T00:51:30.623Z,999.82
2017-11-12T00:52:11.097Z,999.82
2017-11-12T00:52:51.482Z,999.86
2017-11-12T00:53:31.872Z,999.82
2017-11-12T00:54:12.311Z,999.81
2017-11-12T00:54:52.741Z,999.83
2017-11-12T00:55:33.116Z,999.86
2017-11-12T00:56:13.608Z,999.85
2017-11-12T00:56:54.015Z,999.83
2017-11-12T00:57:34.386Z,999.83
2017-11-12T00:58:14.769Z,999.85
2017-11-12T00:58:55.165Z,999.84
2017-11-12T00:59:35.560Z,999.85
2017-11-12T01:00:15.993Z,999.83
2017-11-12T01:00:56.496Z,999.81
2017-11-12T01:01:36.895Z,999.78
2017-11-12T01:02:17.318Z,999.75
2017-11-12T01:02:57.741Z,999.75
2017-11-12T01:03:38.154Z,999.74
2017-11-12T01:04:18.597Z,999.72
2017-11-12T01:04:59.003Z,999.68
2017-11-12T01:05:39.381Z,999.67
2017-11-12T01:06:19.805Z,999.65
2017-11-12T01:07:00.224Z,999.65
2017-11-12T01:07:40.652Z,999.59
2017-11-12T01:08:21.028Z,999.58
2017-11-12T01:09:01.451Z,999.56
2017-11-12T01:09:41.829Z,999.57
2017-11-12T01:10:22.259Z,999.5
2017-11-12T01:11:02.687Z,999.54
2017-11-12T01:11:43.127Z,999.49
2017-11-12T01:12:23.496Z,999.5
2017-11-12T01:13:03.944Z,999.46
2017-11-12T01:13:44.305Z,999.45
2017-11-12T01:14:24.714Z,999.45
2017-11-12T01:15:05.098Z,999.47
2017-11-12T01:15:45.482Z,999.46
2017-11-12T01:16:25.888Z,999.48
2017-11-12T01:17:06.300Z,999.5
2017-11-12T01:17:46.710Z,999.48
2017-11-12T01:18:27.105Z,999.46
2017-11-12T01:19:07.460Z,999.45
2017-11-12T01:19:47.851Z,999.42
2017-11-12T01:20:28.278Z,999.41
2017-11-12T01:21:08.640Z,999.39
2017-11-12T01:21:48.994Z,999.43
2017-11-12T01:22:29.388Z,999.38
2017-11-12T01:23:09.818Z,999.38
2017-11-12T01:23:50.252Z,999.38
2017-11-12T01:24:30.678Z,999.4
2017-11-12T01:25:11.010Z,999.36
2017-11-12T01:25:51.404Z,999.37
2017-11-12T01:26:31.834Z,999.38
2017-11-12T01:27:12.238Z,999.39
2017-11-12T01:27:52.664Z,999.39
2017-11-12T01:28:33.074Z,999.37
2017-11-12T01:29:13.461Z,999.4
2017-11-12T01:29:53.947Z,999.38
2017-11-12T01:30:34.321Z,999.39
2017-11-12T01:31:14.696Z,999.42
2017-11-12T01:31:55.075Z,999.41
2017-11-12T01:32:35.511Z,999.43
2017-11-12T01:33:15.985Z,999.44
2017-11-12T01:33:56.439Z,999.44
2017-11-12T01:34:36.759Z,999.48
2017-11-12T01:35:17.263Z,999.48
2017-11-12T01:35:57.648Z,999.45
2017-11-12T01:36:38.024Z,999.5
2017-11-12T01:37:18.451Z,999.45
2017-11-12T01:37:58.832Z,999.41
2017-11-12T01:38:39.245Z,999.42
2017-11-12T01:39:19.663Z,999.41
2017-11-12T01:40:00.065Z,999.39
2017-11-12T01:40:40.503Z,999.42
2017-11-12T01:41:20.944Z,999.44
2017-11-12T01:42:01.349Z,999.43
2017-11-12T01:42:41.835Z,999.48
2017-11-12T01:43:22.220Z,999.48
2017-11-12T01:44:02.635Z,999.5
2017-11-12T01:44:43.022Z,999.49
2017-11-12T01:45:23.420Z,999.47
2017-11-12T01:46:03.783Z,999.49
2017-11-12T01:46:44.184Z,999.48
2017-11-12T01:47:24.686Z,999.44
2017-11-12T01:48:05.076Z,999.43
2017-11-12T01:48:45.464Z,999.43
2017-11-12T01:49:25.896Z,999.39
2017-11-12T01:50:06.314Z,999.37
2017-11-12T01:50:46.690Z,999.33
2017-11-12T01:51:27.069Z,999.31
2017-11-12T01:52:07.470Z,999.29
2017-11-12T01:52:47.893Z,999.3
2017-11-12T01:53:28.250Z,999.25
2017-11-12T01:54:08.633Z,999.23
2017-11-12T01:54:49.055Z,999.23
2017-11-12T01:55:29.435Z,999.15
2017-11-12T01:56:09.815Z,999.13
2017-11-12T01:56:50.232Z,999.18
2017-11-12T01:57:30.676Z,999.15
2017-11-12T01:58:11.010Z,999.16
2017-11-12T01:58:51.446Z,999.19
2017-11-12T01:59:31.875Z,999.17
2017-11-12T02:00:12.273Z,999.1
2017-11-12T02:00:52.660Z,999.07
2017-11-12T02:01:33.078Z,999.05
2017-11-12T02:02:13.513Z,999.01
2017-11-12T02:02:53.895Z,999.01
2017-11-12T02:03:34.322Z,998.95
2017-11-12T02:04:14.674Z,999.04
2017-11-12T02:04:55.080Z,998.99
2017-11-12T02:05:35.469Z,998.99
2017-11-12T02:06:15.872Z,998.98
2017-11-12T02:06:56.222Z,999
2017-11-12T02:07:36.567Z,999.04
2017-11-12T02:08:16.974Z,999.03
2017-11-12T02:08:57.395Z,999.05
2017-11-12T02:09:37.748Z,999.02
2017-11-12T02:10:18.167Z,999.01
2017-11-12T02:10:58.576Z,998.99
2017-11-12T02:11:39.040Z,998.98
2017-11-12T02:12:19.456Z,998.96
2017-11-12T02:12:59.884Z,998.98
2017-11-12T02:13:40.277Z,998.96
2017-11-12T02:14:20.623Z,998.96
2017-11-12T02:15:01.033Z,998.92
2017-11-12T02:15:41.437Z,998.93
2017-11-12T02:16:21.850Z,998.91
2017-11-12T02:17:02.331Z,998.84
2017-11-12T02:17:42.628Z,998.79
2017-11-12T02:18:23.067Z,998.79
2017-11-12T02:19:03.396Z,998.77
2017-11-12T02:19:43.826Z,998.71
2017-11-12T02:20:24.239Z,998.75
2017-11-12T02:21:04.644Z,998.76
2017-11-12T02:21:45.043Z,998.79
2017-11-12T02:22:25.442Z,998.77
2017-11-12T02:23:05.845Z,998.75
2017-11-12T02:23:46.213Z,998.79
2017-11-12T02:24:26.609Z,998.81
2017-11-12T02:25:07.025Z,998.81
2017-11-12T02:25:47.441Z,998.77
2017-11-12T02:26:27.900Z,998.79
2017-11-12T02:27:08.267Z,998.8
2017-11-12T02:27:48.707Z,998.77
2017-11-12T02:28:29.085Z,998.78
2017-11-12T02:29:09.509Z,998.79
2017-11-12T02:29:49.903Z,998.78
2017-11-12T02:30:30.305Z,998.75
2017-11-12T02:31:10.710Z,998.78
2017-11-12T02:31:51.115Z,998.78
2017-11-12T02:32:31.541Z,998.78
2017-11-12T02:33:11.936Z,998.76
2017-11-12T02:33:52.338Z,998.77
2017-11-12T02:34:32.734Z,998.75
2017-11-12T02:35:13.211Z,998.77
2017-11-12T02:35:53.565Z,998.71
2017-11-12T02:36:33.910Z,998.67
2017-11-12T02:37:14.359Z,998.69
2017-11-12T02:37:54.775Z,998.7
2017-11-12T02:38:35.143Z,998.66
2017-11-12T02:39:15.554Z,998.64
2017-11-12T02:39:55.947Z,998.6
2017-11-12T02:40:36.375Z,998.57
2017-11-12T02:41:16.751Z,998.53
2017-11-12T02:41:57.225Z,998.49
2017-11-12T02:42:37.633Z,998.47
2017-11-12T02:43:18.033Z,998.49
2017-11-12T02:43:58.476Z,998.46
2017-11-12T02:44:38.936Z,998.44
2017-11-12T02:45:19.296Z,998.45
2017-11-12T02:45:59.769Z,998.43
2017-11-12T02:46:40.106Z,998.49
2017-11-12T02:47:20.508Z,998.49
2017-11-12T02:48:00.989Z,998.48
2017-11-12T02:48:41.393Z,998.48
2017-11-12T02:49:21.795Z,998.56
2017-11-12T02:50:02.230Z,998.5
2017-11-12T02:50:42.601Z,998.48
2017-11-12T02:51:22.998Z,998.48
2017-11-12T02:52:03.367Z,998.48
2017-11-12T02:52:43.742Z,998.52
2017-11-12T02:53:24.167Z,998.52
2017-11-12T02:54:04.516Z,998.5
2017-11-12T02:54:44.996Z,998.56
2017-11-12T02:55:25.395Z,998.56
2017-11-12T02:56:05.864Z,998.56
2017-11-12T02:56:46.328Z,998.61
2017-11-12T02:57:26.658Z,998.65
2017-11-12T02:58:07.098Z,998.62
2017-11-12T02:58:47.502Z,998.6
2017-11-12T02:59:27.873Z,998.6
2017-11-12T03:00:08.288Z,998.58
2017-11-12T03:00:48.687Z,998.55
2017-11-12T03:01:29.060Z,998.53
2017-11-12T03:02:09.462Z,998.5
2017-11-12T03:02:49.904Z,998.49
2017-11-12T03:03:30.256Z,998.48
2017-11-12T03:04:10.672Z,998.51
2017-11-12T03:04:51.057Z,998.46
2017-11-12T03:05:31.481Z,998.46
2017-11-12T03:06:11.843Z,998.45
2017-11-12T03:06:52.266Z,998.45
2017-11-12T03:07:32.706Z,998.45
2017-11-12T03:08:13.081Z,998.52
2017-11-12T03:08:53.460Z,998.5
2017-11-12T03:09:33.891Z,998.52
2017-11-12T03:10:14.254Z,998.49
2017-11-12T03:10:54.638Z,998.48
2017-11-12T03:11:35.091Z,998.46
2017-11-12T03:12:15.510Z,998.44
2017-11-12T03:12:56.029Z,998.43
2017-11-12T03:13:36.421Z,998.46
2017-11-12T03:14:16.803Z,998.44
2017-11-12T03:14:57.182Z,998.41
2017-11-12T03:15:37.552Z,998.39
2017-11-12T03:16:17.912Z,998.35
2017-11-12T03:16:58.276Z,998.33
2017-11-12T03:17:38.702Z,998.27
2017-11-12T03:18:19.197Z,998.27
2017-11-12T03:18:59.509Z,998.2
2017-11-12T03:19:39.940Z,998.21
2017-11-12T03:20:20.330Z,998.24
2017-11-12T03:21:00.728Z,998.23
2017-11-12T03:21:41.150Z,998.2
2017-11-12T03:22:21.582Z,998.13
2017-11-12T03:23:01.996Z,998.12
2017-11-12T03:23:42.421Z,998.12
2017-11-12T03:24:22.836Z,998.13
2017-11-12T03:25:03.206Z,998.1
2017-11-12T03:25:43.670Z,998.12
2017-11-12T03:26:24.073Z,998.07
2017-11-12T03:27:04.473Z,998.05
2017-11-12T03:27:44.927Z,998.03
2017-11-12T03:28:25.325Z,998.03
2017-11-12T03:29:05.680Z,998.01
2017-11-12T03:29:46.136Z,998.05
2017-11-12T03:30:26.527Z,998.05
2017-11-12T03:31:06.933Z,998.04
2017-11-12T03:31:47.325Z,998.06
2017-11-12T03:32:27.735Z,998.06
2017-11-12T03:33:08.107Z,998.08
2017-11-12T03:33:48.550Z,998.12
2017-11-12T03:34:28.969Z,998.12
2017-11-12T03:35:09.402Z,998.14
2017-11-12T03:35:49.867Z,998.15
2017-11-12T03:36:30.228Z,998.16
2017-11-12T03:37:10.653Z,998.2
2017-11-12T03:37:51.092Z,998.21
2017-11-12T03:38:31.470Z,998.22
2017-11-12T03:39:11.979Z,998.25
2017-11-12T03:39:52.408Z,998.26
2017-11-12T03:40:32.846Z,998.28
2017-11-12T03:41:13.267Z,998.28
2017-11-12T03:41:53.636Z,998.22
2017-11-12T03:42:34.064Z,998.19
2017-11-12T03:43:14.578Z,998.15
2017-11-12T03:43:54.969Z,998.13
2017-11-12T03:44:35.368Z,998.08
2017-11-12T03:45:15.802Z,998.09
2017-11-12T03:45:56.206Z,998.06
2017-11-12T03:46:36.593Z,998.02
2017-11-12T03:47:16.992Z,998.01
2017-11-12T03:47:57.408Z,998.02
2017-11-12T03:48:37.798Z,997.95
2017-11-12T03:49:18.203Z,997.91
2017-11-12T03:49:58.587Z,997.88
2017-11-12T03:50:38.963Z,997.87
2017-11-12T03:51:19.358Z,997.86
2017-11-12T03:51:59.830Z,997.88
2017-11-12T03:52:40.154Z,997.92
2017-11-12T03:53:20.579Z,997.87
2017-11-12T03:54:00.964Z,997.89
2017-11-12T03:54:41.453Z,997.93
2017-11-12T03:55:21.822Z,997.92
2017-11-12T03:56:02.220Z,997.9
2017-11-12T03:56:42.657Z,997.89
2017-11-12T03:57:23.027Z,997.89
2017-11-12T03:58:03.428Z,997.93
2017-11-12T03:58:43.860Z,997.95
2017-11-12T04:01:11.626Z,997.91
2017-11-12T04:42:24.592Z,997.09
2017-11-12T04:43:04.980Z,997.09
2017-11-12T04:43:45.437Z,997.1
2017-11-12T04:44:25.772Z,997.09
2017-11-12T04:45:06.228Z,997.06
2017-11-12T04:45:46.599Z,997.06
2017-11-12T04:46:27.037Z,997.02
2017-11-12T04:47:07.336Z,997.05
2017-11-12T04:47:47.773Z,997.01
2017-11-12T04:48:28.188Z,997.02
2017-11-12T04:49:08.572Z,997.02
2017-11-12T04:49:48.996Z,997.01
2017-11-12T04:50:29.392Z,997.06
2017-11-12T04:51:09.799Z,996.99
2017-11-12T04:51:50.144Z,997.02
2017-11-12T04:52:30.562Z,997.02
2017-11-12T04:53:10.996Z,997.06
2017-11-12T04:53:51.336Z,997.09
2017-11-12T04:54:31.780Z,997.08
2017-11-12T04:55:12.242Z,997.09
2017-11-12T04:55:52.662Z,997.09
2017-11-12T04:56:33.091Z,997.1
2017-11-12T04:57:13.452Z,997.07
2017-11-12T04:57:53.922Z,997.06
2017-11-12T04:58:34.343Z,997.1
2017-11-12T04:59:14.734Z,997.08
2017-11-12T04:59:55.106Z,997.02
2017-11-12T05:00:35.471Z,997.07
2017-11-12T05:01:15.937Z,997.02
2017-11-12T05:01:56.370Z,996.99
2017-11-12T05:02:36.786Z,996.96
2017-11-12T05:03:17.075Z,996.96
2017-11-12T05:03:57.521Z,996.95
2017-11-12T05:04:37.936Z,996.89
2017-11-12T05:05:18.341Z,996.89
2017-11-12T05:05:58.734Z,996.87
2017-11-12T05:06:39.103Z,996.87
2017-11-12T05:07:19.512Z,996.89
2017-11-12T05:07:59.943Z,996.86
2017-11-12T05:08:42.205Z,996.85
2017-11-12T05:09:22.619Z,996.85
2017-11-12T05:10:03.127Z,996.85
2017-11-12T05:10:43.589Z,996.8
2017-11-12T05:11:23.956Z,996.76
2017-11-12T05:12:04.396Z,996.77
2017-11-12T05:12:44.832Z,996.77
2017-11-12T05:13:25.229Z,996.74
2017-11-12T05:14:05.534Z,996.78
2017-11-12T05:14:45.943Z,996.76
2017-11-12T05:15:26.399Z,996.69
2017-11-12T05:16:06.778Z,996.7
2017-11-12T05:16:47.274Z,996.68
2017-11-12T05:17:27.749Z,996.68
2017-11-12T05:18:08.068Z,996.66
2017-11-12T05:18:48.565Z,996.66
2017-11-12T05:19:28.994Z,996.63
2017-11-12T05:20:09.455Z,996.64
2017-11-12T05:20:49.787Z,996.61
2017-11-12T05:21:30.203Z,996.59
2017-11-12T05:22:10.629Z,996.6
2017-11-12T05:22:51.007Z,996.56
2017-11-12T05:23:31.484Z,996.53
2017-11-12T05:24:11.911Z,996.52
2017-11-12T05:24:52.424Z,996.48
2017-11-12T05:25:32.794Z,996.46
2017-11-12T05:26:13.178Z,996.38
2017-11-12T05:26:53.576Z,996.39
2017-11-12T05:27:34.053Z,996.33
2017-11-12T05:28:14.405Z,996.29
2017-11-12T05:28:54.918Z,996.3
2017-11-12T05:29:35.314Z,996.25
2017-11-12T05:30:15.631Z,996.26
2017-11-12T05:30:56.091Z,996.26
2017-11-12T05:31:36.544Z,996.25
2017-11-12T05:32:16.907Z,996.26
2017-11-12T05:32:57.251Z,996.26
2017-11-12T05:33:38.942Z,996.22
2017-11-12T05:34:19.681Z,996.21
2017-11-12T05:34:59.883Z,996.23
2017-11-12T05:35:40.331Z,996.24
2017-11-12T05:36:20.674Z,996.15
2017-11-12T05:37:01.049Z,996.15
2017-11-12T05:37:41.419Z,996.16
2017-11-12T05:38:21.920Z,996.12
2017-11-12T05:39:02.229Z,996.16
2017-11-12T05:39:42.599Z,996.14
2017-11-12T05:40:23.030Z,996.12
2017-11-12T05:41:03.508Z,996.11
2017-11-12T05:41:43.929Z,996.07
2017-11-12T05:42:24.253Z,996.1
2017-11-12T05:43:04.724Z,996.08
2017-11-12T05:43:45.190Z,996.09
2017-11-12T05:44:25.557Z,996.06
2017-11-12T05:45:05.992Z,996.05
2017-11-12T05:45:46.410Z,996.05
2017-11-12T05:46:26.860Z,995.98
2017-11-12T05:47:07.171Z,996.01
2017-11-12T05:47:47.640Z,995.97
2017-11-12T05:48:28.048Z,995.95
2017-11-12T05:49:08.419Z,995.95
2017-11-12T05:49:48.921Z,995.91
2017-11-12T05:50:29.270Z,995.98
2017-11-12T05:51:09.623Z,996.01
2017-11-12T05:51:50.074Z,995.97
2017-11-12T05:52:30.507Z,996
2017-11-12T05:53:10.846Z,995.98
2017-11-12T05:53:51.323Z,995.99
2017-11-12T05:54:31.745Z,995.9
2017-11-12T05:55:12.129Z,995.9
2017-11-12T05:55:52.522Z,995.88
2017-11-12T05:56:32.914Z,995.86
2017-11-12T05:57:13.321Z,995.87
2017-11-12T05:57:53.708Z,995.82
2017-11-12T05:58:34.191Z,995.84
2017-11-12T05:59:14.503Z,995.8
2017-11-12T05:59:54.947Z,995.76
2017-11-12T06:00:35.327Z,995.74
2017-11-12T06:01:15.733Z,995.68
2017-11-12T06:01:56.108Z,995.69
2017-11-12T06:02:36.605Z,995.7
2017-11-12T06:03:17.001Z,995.67
2017-11-12T06:03:57.405Z,995.68
2017-11-12T06:04:37.779Z,995.56
2017-11-12T06:05:18.198Z,995.53
2017-11-12T06:05:58.587Z,995.55
2017-11-12T06:06:38.971Z,995.53
2017-11-12T06:07:19.460Z,995.52
2017-11-12T06:07:59.765Z,995.45
2017-11-12T06:08:40.265Z,995.42
2017-11-12T06:09:20.815Z,995.38
2017-11-12T06:10:01.238Z,995.36
2017-11-12T06:10:41.599Z,995.38
2017-11-12T06:11:22.068Z,995.36
2017-11-12T06:12:02.478Z,995.38
2017-11-12T06:12:42.825Z,995.35
2017-11-12T06:13:23.361Z,995.38
2017-11-12T06:14:03.762Z,995.37
2017-11-12T06:14:44.143Z,995.35
2017-11-12T06:15:24.622Z,995.34
2017-11-12T06:16:05.146Z,995.3
2017-11-12T06:16:45.571Z,995.29
2017-11-12T06:17:25.938Z,995.27
2017-11-12T06:18:06.280Z,995.29
2017-11-12T06:18:46.714Z,995.3
2017-11-12T06:19:27.161Z,995.29
2017-11-12T06:20:07.618Z,995.26
2017-11-12T06:20:47.937Z,995.26
2017-11-12T06:21:28.300Z,995.28
2017-11-12T06:22:08.689Z,995.25
2017-11-12T06:22:49.152Z,995.28
2017-11-12T06:23:29.569Z,995.26
2017-11-12T06:24:10.002Z,995.27
2017-11-12T06:24:50.339Z,995.24
2017-11-12T06:25:30.801Z,995.18
2017-11-12T06:26:11.169Z,995.19
2017-11-12T06:26:51.627Z,995.14
2017-11-12T06:27:32.097Z,995.13
2017-11-12T06:28:12.380Z,995.13
2017-11-12T06:28:52.818Z,995.13
2017-11-12T06:29:33.201Z,995.11
2017-11-12T06:30:13.533Z,995.13
2017-11-12T06:30:53.984Z,995.1
2017-11-12T06:31:34.304Z,995.08
2017-11-12T06:32:14.677Z,995.1
2017-11-12T06:32:55.141Z,995.03
2017-11-12T06:33:35.626Z,995.04
2017-11-12T06:34:15.938Z,995.03
2017-11-12T06:34:56.410Z,995.02
2017-11-12T06:35:36.813Z,994.97
2017-11-12T06:36:17.212Z,994.97
2017-11-12T06:36:57.654Z,994.93
2017-11-12T06:37:38.056Z,994.9
2017-11-12T06:38:18.385Z,994.87
2017-11-12T06:38:58.821Z,994.86
2017-11-12T06:39:39.257Z,994.85
2017-11-12T06:40:19.642Z,994.87
2017-11-12T06:40:59.960Z,994.88
2017-11-12T06:41:40.393Z,994.86
2017-11-12T06:42:20.817Z,994.85
2017-11-12T06:43:01.295Z,994.87
2017-11-12T06:43:41.709Z,994.84
2017-11-12T06:44:22.170Z,994.87
2017-11-12T06:45:02.607Z,994.81
2017-11-12T06:45:43.064Z,994.83
2017-11-12T06:46:23.482Z,994.82
2017-11-12T06:47:03.836Z,994.83
2017-11-12T06:47:44.246Z,994.81
2017-11-12T06:48:24.596Z,994.78
2017-11-12T06:49:04.962Z,994.76
2017-11-12T06:49:45.381Z,994.71
2017-11-12T06:50:25.788Z,994.73
2017-11-12T06:51:06.271Z,994.68
2017-11-12T06:51:46.683Z,994.68
2017-11-12T06:52:26.961Z,994.65
2017-11-12T06:53:07.413Z,994.64
2017-11-12T06:53:47.695Z,994.63
2017-11-12T06:54:28.183Z,994.64
2017-11-12T06:55:08.665Z,994.61
2017-11-12T06:55:48.995Z,994.58
2017-11-12T06:56:29.321Z,994.55
2017-11-12T06:57:09.749Z,994.46
2017-11-12T06:57:50.079Z,994.46
2017-11-12T06:58:30.507Z,994.48
2017-11-12T06:59:10.937Z,994.42
2017-11-12T06:59:51.319Z,994.41
2017-11-12T07:00:31.775Z,994.38
2017-11-12T07:01:12.178Z,994.35
2017-11-12T07:01:52.598Z,994.32
2017-11-12T07:02:32.905Z,994.26
2017-11-12T07:03:13.425Z,994.26
2017-11-12T07:03:53.764Z,994.22
2017-11-12T07:04:34.191Z,994.2
2017-11-12T07:05:14.681Z,994.17
2017-11-12T07:05:55.091Z,994.17
2017-11-12T07:06:35.452Z,994.14
2017-11-12T07:07:59.115Z,994.08
2017-11-12T07:08:39.512Z,994.09
2017-11-12T07:09:20.241Z,994
2017-11-12T07:10:00.598Z,994.02
2017-11-12T07:10:40.908Z,994
2017-11-12T07:11:21.503Z,994
2017-11-12T07:12:01.823Z,993.99
2017-11-12T07:12:42.179Z,993.97
2017-11-12T07:13:22.554Z,993.97
2017-11-12T07:14:02.961Z,993.95
2017-11-12T07:14:43.330Z,993.94
2017-11-12T07:15:23.774Z,993.91
2017-11-12T07:16:04.150Z,993.97
2017-11-12T07:16:44.635Z,993.89
2017-11-12T07:17:25.168Z,993.92
2017-11-12T07:18:05.467Z,993.91
2017-11-12T07:18:45.885Z,993.83
2017-11-12T07:19:26.281Z,993.85
2017-11-12T07:20:06.692Z,993.84
2017-11-12T07:20:47.156Z,993.85
2017-11-12T07:21:27.704Z,993.83
2017-11-12T07:22:07.991Z,993.89
2017-11-12T07:22:48.319Z,993.86
2017-11-12T07:23:28.785Z,993.84
2017-11-12T07:24:09.223Z,993.87
2017-11-12T07:24:50.419Z,993.86
2017-11-12T07:25:30.753Z,993.81
2017-11-12T07:26:11.279Z,993.84
2017-11-12T07:26:51.725Z,993.83
2017-11-12T07:27:32.300Z,993.83
2017-11-12T07:28:12.746Z,993.85
2017-11-12T07:28:53.503Z,993.82
2017-11-12T07:29:34.019Z,993.81
2017-11-12T07:30:14.286Z,993.83
2017-11-12T07:30:54.731Z,993.81
2017-11-12T07:31:35.154Z,993.82
2017-11-12T07:32:15.643Z,993.79
2017-11-12T07:32:56.073Z,993.82
2017-11-12T07:33:36.510Z,993.82
2017-11-12T07:34:17.241Z,993.81
2017-11-12T07:34:57.683Z,993.86
2017-11-12T07:35:37.985Z,993.87
2017-11-12T07:36:18.407Z,993.89
2017-11-12T07:37:01.610Z,993.93
2017-11-12T07:37:42.793Z,993.93
2017-11-12T07:38:23.136Z,993.93
2017-11-12T07:39:03.578Z,993.91
2017-11-12T07:39:43.987Z,993.92
2017-11-12T07:40:24.443Z,993.89
2017-11-12T07:41:05.752Z,993.92
2017-11-12T07:41:46.454Z,993.88
2017-11-12T07:42:26.842Z,993.91
2017-11-12T07:43:09.137Z,993.92
2017-11-12T07:43:49.480Z,993.93
2017-11-12T07:44:29.975Z,993.95
2017-11-12T07:45:10.321Z,993.98
2017-11-12T07:45:50.750Z,993.95
2017-11-12T07:46:31.118Z,993.96
2017-11-12T07:47:11.596Z,994
2017-11-12T07:47:51.890Z,993.99
2017-11-12T07:48:32.424Z,994.02
2017-11-12T07:49:12.774Z,993.98
2017-11-12T07:49:53.252Z,993.97
2017-11-12T07:50:33.798Z,993.98
2017-11-12T07:51:14.223Z,993.94
2017-11-12T07:51:54.510Z,993.95
2017-11-12T07:52:35.065Z,993.96
2017-11-12T07:53:15.384Z,994
2017-11-12T07:53:55.776Z,993.99
2017-11-12T07:54:36.222Z,994.01
2017-11-12T07:55:16.629Z,993.98
2017-11-12T07:55:57.117Z,994.02
2017-11-12T07:56:37.529Z,994.01
2017-11-12T07:57:18.017Z,993.99
2017-11-12T07:57:58.418Z,993.94
2017-11-12T07:58:38.856Z,993.96
2017-11-12T07:59:19.300Z,993.9
2017-11-12T07:59:59.642Z,993.9
2017-11-12T08:00:40.099Z,993.9
2017-11-12T08:01:20.650Z,993.87
2017-11-12T08:02:01.129Z,993.88
2017-11-12T08:02:41.509Z,993.87
2017-11-12T08:03:21.928Z,993.86
2017-11-12T08:04:02.325Z,993.88
2017-11-12T08:04:42.769Z,993.87
2017-11-12T08:05:23.103Z,993.83
2017-11-12T08:06:03.524Z,993.86
2017-11-12T08:06:43.881Z,993.87
2017-11-12T08:07:24.371Z,993.84
2017-11-12T08:08:04.708Z,993.88
2017-11-12T08:08:45.145Z,993.86
2017-11-12T08:09:25.599Z,993.85
2017-11-12T08:10:05.954Z,993.85
2017-11-12T08:10:46.390Z,993.81
2017-11-12T08:11:26.710Z,993.8
2017-11-12T08:12:07.127Z,993.79
2017-11-12T08:12:47.554Z,993.77
2017-11-12T08:13:27.955Z,993.77
2017-11-12T08:14:08.331Z,993.76
2017-11-12T08:14:48.700Z,993.8
2017-11-12T08:15:29.203Z,993.83
2017-11-12T08:16:09.581Z,993.82
2017-11-12T08:16:49.958Z,993.77
2017-11-12T08:17:30.361Z,993.8
2017-11-12T08:18:10.815Z,993.78
2017-11-12T08:18:51.200Z,993.81
2017-11-12T08:19:31.795Z,993.79
2017-11-12T08:20:12.142Z,993.83
2017-11-12T08:20:52.551Z,993.84
2017-11-12T08:21:32.942Z,993.88
2017-11-12T08:22:13.369Z,993.85
2017-11-12T08:22:53.747Z,993.82
2017-11-12T08:23:34.163Z,993.84
2017-11-12T08:24:14.469Z,993.87
2017-11-12T08:24:54.897Z,993.88
2017-11-12T08:25:35.320Z,993.85
2017-11-12T08:26:15.706Z,993.86
2017-11-12T08:26:56.128Z,993.86
2017-11-12T08:27:36.535Z,993.85
2017-11-12T08:28:16.968Z,993.81
2017-11-12T08:28:57.417Z,993.79
2017-11-12T08:29:37.860Z,993.78
2017-11-12T08:30:18.289Z,993.76
2017-11-12T08:30:58.657Z,993.69
2017-11-12T08:31:39.144Z,993.71
2017-11-12T08:32:19.557Z,993.7
2017-11-12T08:33:00.081Z,993.71
2017-11-12T08:33:40.396Z,993.66
2017-11-12T08:34:20.857Z,993.68
2017-11-12T08:35:01.209Z,993.62
2017-11-12T08:35:41.644Z,993.65
2017-11-12T08:36:22.019Z,993.64
2017-11-12T08:37:02.448Z,993.6
2017-11-12T08:37:42.846Z,993.58
2017-11-12T08:38:23.249Z,993.59
2017-11-12T08:39:03.601Z,993.56
2017-11-12T08:39:44.040Z,993.57
2017-11-12T08:40:24.452Z,993.59
2017-11-12T08:41:04.906Z,993.62
2017-11-12T08:41:45.272Z,993.64
2017-11-12T08:42:25.746Z,993.64
2017-11-12T08:43:06.104Z,993.64
2017-11-12T08:43:46.523Z,993.66
2017-11-12T08:44:27.113Z,993.62
2017-11-12T08:45:07.490Z,993.56
2017-11-12T08:45:47.917Z,993.57
2017-11-12T08:46:28.278Z,993.53
2017-11-12T08:47:08.697Z,993.54
2017-11-12T08:47:49.120Z,993.49
2017-11-12T08:48:29.542Z,993.47
2017-11-12T08:49:09.981Z,993.5
2017-11-12T08:49:50.358Z,993.47
2017-11-12T08:50:30.798Z,993.46
2017-11-12T08:51:11.996Z,993.46
2017-11-12T08:51:52.409Z,993.47
2017-11-12T08:52:32.793Z,993.37
2017-11-12T08:53:13.261Z,993.39
2017-11-12T08:53:53.617Z,993.38
2017-11-12T08:54:34.195Z,993.38
2017-11-12T08:55:14.546Z,993.39
2017-11-12T08:55:54.952Z,993.39
2017-11-12T08:56:35.476Z,993.35
2017-11-12T08:57:15.832Z,993.4
2017-11-12T08:57:56.391Z,993.39
2017-11-12T08:58:36.702Z,993.39
2017-11-12T08:59:17.153Z,993.37
2017-11-12T08:59:57.912Z,993.35
2017-11-12T09:00:38.284Z,993.37
2017-11-12T09:01:18.733Z,993.43
2017-11-12T09:01:59.180Z,993.42
2017-11-12T09:02:39.639Z,993.41
2017-11-12T09:03:20.036Z,993.45
2017-11-12T09:04:00.607Z,993.42
2017-11-12T09:04:41.024Z,993.37
2017-11-12T09:05:21.447Z,993.37
2017-11-12T09:06:01.851Z,993.29
2017-11-12T09:06:42.225Z,993.3
2017-11-12T09:07:22.696Z,993.26
2017-11-12T09:08:03.846Z,993.28
2017-11-12T09:08:44.316Z,993.26